sensor_id;sensor_type;location;lat;lon;timestamp;P1;durP1;ratioP1;P2;durP2;ratioP2
19016;SDS011;9641;51.494;6.670;2023-03-14T00:00:49;3.90;;;1.73;;
19016;SDS011;9641;51.494;6.670;2023-03-14T00:03:16;4.20;;;1.40;;
19016;SDS011;9641;51.494;6.670;2023-03-14T00:05:43;2.57;;;1.60;;
19016;SDS011;9641;51.494;6.670;2023-03-14T00:08:10;3.40;;;1.50;;
19016;SDS011;9641;51.494;6.670;2023-03-14T00:10:37;3.27;;;1.50;;
19016;SDS011;9641;51.494;6.670;2023-03-14T00:13:05;6.73;;;1.73;;
19016;SDS011;9641;51.494;6.670;2023-03-14T00:15:32;8.50;;;2.00;;
19016;SDS011;9641;51.494;6.670;2023-03-14T00:17:59;5.50;;;1.70;;
19016;SDS011;9641;51.494;6.670;2023-03-14T00:20:27;3.83;;;1.43;;
19016;SDS011;9641;51.494;6.670;2023-03-14T00:22:54;8.23;;;1.80;;
19016;SDS011;9641;51.494;6.670;2023-03-14T00:25:21;5.63;;;1.63;;
19016;SDS011;9641;51.494;6.670;2023-03-14T00:27:50;6.27;;;1.50;;
19016;SDS011;9641;51.494;6.670;2023-03-14T00:30:18;3.47;;;1.57;;
19016;SDS011;9641;51.494;6.670;2023-03-14T00:32:45;4.50;;;1.53;;
19016;SDS011;9641;51.494;6.670;2023-03-14T00:35:12;5.53;;;1.80;;
19016;SDS011;9641;51.494;6.670;2023-03-14T00:37:39;3.97;;;1.73;;
19016;SDS011;9641;51.494;6.670;2023-03-14T00:40:07;3.67;;;2.20;;
19016;SDS011;9641;51.494;6.670;2023-03-14T00:42:35;6.43;;;2.10;;
19016;SDS011;9641;51.494;6.670;2023-03-14T00:45:02;7.80;;;2.30;;
19016;SDS011;9641;51.494;6.670;2023-03-14T00:47:34;6.63;;;1.90;;
19016;SDS011;9641;51.494;6.670;2023-03-14T00:50:01;7.47;;;1.63;;
19016;SDS011;9641;51.494;6.670;2023-03-14T00:52:28;8.80;;;1.97;;
19016;SDS011;9641;51.494;6.670;2023-03-14T00:54:55;4.87;;;1.70;;
19016;SDS011;9641;51.494;6.670;2023-03-14T00:57:22;8.87;;;1.90;;
19016;SDS011;9641;51.494;6.670;2023-03-14T00:59:50;5.10;;;1.93;;
19016;SDS011;9641;51.494;6.670;2023-03-14T01:02:17;7.63;;;1.53;;
19016;SDS011;9641;51.494;6.670;2023-03-14T01:04:48;3.07;;;1.43;;
19016;SDS011;9641;51.494;6.670;2023-03-14T01:07:15;6.93;;;1.53;;
19016;SDS011;9641;51.494;6.670;2023-03-14T01:09:42;4.57;;;1.63;;
19016;SDS011;9641;51.494;6.670;2023-03-14T01:12:09;6.40;;;1.37;;
19016;SDS011;9641;51.494;6.670;2023-03-14T01:14:36;7.20;;;2.00;;
19016;SDS011;9641;51.494;6.670;2023-03-14T01:17:03;6.77;;;1.63;;
19016;SDS011;9641;51.494;6.670;2023-03-14T01:19:30;4.13;;;1.57;;
19016;SDS011;9641;51.494;6.670;2023-03-14T01:21:59;4.50;;;1.37;;
19016;SDS011;9641;51.494;6.670;2023-03-14T01:24:26;4.33;;;1.60;;
19016;SDS011;9641;51.494;6.670;2023-03-14T01:26:53;5.97;;;1.57;;
19016;SDS011;9641;51.494;6.670;2023-03-14T01:29:22;4.20;;;1.60;;
19016;SDS011;9641;51.494;6.670;2023-03-14T01:31:49;4.03;;;1.23;;
19016;SDS011;9641;51.494;6.670;2023-03-14T01:34:17;4.07;;;1.60;;
19016;SDS011;9641;51.494;6.670;2023-03-14T01:36:44;8.07;;;1.70;;
19016;SDS011;9641;51.494;6.670;2023-03-14T01:39:12;3.87;;;1.30;;
19016;SDS011;9641;51.494;6.670;2023-03-14T01:41:40;5.17;;;1.53;;
19016;SDS011;9641;51.494;6.670;2023-03-14T01:44:09;7.00;;;1.40;;
19016;SDS011;9641;51.494;6.670;2023-03-14T01:46:37;4.73;;;1.70;;
19016;SDS011;9641;51.494;6.670;2023-03-14T01:49:07;5.60;;;1.30;;
19016;SDS011;9641;51.494;6.670;2023-03-14T01:51:43;5.90;;;1.30;;
19016;SDS011;9641;51.494;6.670;2023-03-14T01:54:18;5.23;;;1.40;;
19016;SDS011;9641;51.494;6.670;2023-03-14T01:56:50;3.73;;;1.53;;
19016;SDS011;9641;51.494;6.670;2023-03-14T01:59:21;5.03;;;1.40;;
19016;SDS011;9641;51.494;6.670;2023-03-14T02:01:48;1.50;;;1.00;;
19016;SDS011;9641;51.494;6.670;2023-03-14T02:04:17;3.60;;;1.10;;
19016;SDS011;9641;51.494;6.670;2023-03-14T02:06:48;8.43;;;1.53;;
19016;SDS011;9641;51.494;6.670;2023-03-14T02:09:24;5.17;;;1.10;;
19016;SDS011;9641;51.494;6.670;2023-03-14T02:11:51;3.93;;;0.93;;
19016;SDS011;9641;51.494;6.670;2023-03-14T02:14:53;5.63;;;1.63;;
19016;SDS011;9641;51.494;6.670;2023-03-14T02:17:24;6.47;;;1.33;;
19016;SDS011;9641;51.494;6.670;2023-03-14T02:20:07;1.50;;;1.00;;
19016;SDS011;9641;51.494;6.670;2023-03-14T02:22:44;3.47;;;0.90;;
19016;SDS011;9641;51.494;6.670;2023-03-14T02:25:15;4.67;;;1.40;;
19016;SDS011;9641;51.494;6.670;2023-03-14T02:27:52;3.83;;;1.50;;
19016;SDS011;9641;51.494;6.670;2023-03-14T02:30:20;2.83;;;1.40;;
19016;SDS011;9641;51.494;6.670;2023-03-14T02:32:49;2.47;;;1.40;;
19016;SDS011;9641;51.494;6.670;2023-03-14T02:35:21;2.67;;;1.43;;
19016;SDS011;9641;51.494;6.670;2023-03-14T02:37:51;6.50;;;1.57;;
19016;SDS011;9641;51.494;6.670;2023-03-14T02:40:23;9.67;;;1.67;;
19016;SDS011;9641;51.494;6.670;2023-03-14T02:42:53;7.83;;;1.83;;
19016;SDS011;9641;51.494;6.670;2023-03-14T02:45:34;2.17;;;0.87;;
19016;SDS011;9641;51.494;6.670;2023-03-14T02:48:04;7.40;;;2.00;;
19016;SDS011;9641;51.494;6.670;2023-03-14T02:50:36;4.50;;;1.33;;
19016;SDS011;9641;51.494;6.670;2023-03-14T02:53:04;9.83;;;1.53;;
19016;SDS011;9641;51.494;6.670;2023-03-14T02:55:31;7.90;;;2.00;;
19016;SDS011;9641;51.494;6.670;2023-03-14T02:58:05;8.90;;;1.60;;
19016;SDS011;9641;51.494;6.670;2023-03-14T03:00:32;4.70;;;1.40;;
19016;SDS011;9641;51.494;6.670;2023-03-14T03:03:01;6.87;;;1.63;;
19016;SDS011;9641;51.494;6.670;2023-03-14T03:05:28;10.20;;;2.03;;
19016;SDS011;9641;51.494;6.670;2023-03-14T03:07:55;9.97;;;1.60;;
19016;SDS011;9641;51.494;6.670;2023-03-14T03:10:22;7.40;;;1.80;;
19016;SDS011;9641;51.494;6.670;2023-03-14T03:12:50;4.93;;;1.30;;
19016;SDS011;9641;51.494;6.670;2023-03-14T03:15:22;8.53;;;2.37;;
19016;SDS011;9641;51.494;6.670;2023-03-14T03:17:50;6.07;;;1.50;;
19016;SDS011;9641;51.494;6.670;2023-03-14T03:20:16;5.77;;;1.60;;
19016;SDS011;9641;51.494;6.670;2023-03-14T03:22:43;5.50;;;1.50;;
19016;SDS011;9641;51.494;6.670;2023-03-14T03:25:10;7.70;;;1.40;;
19016;SDS011;9641;51.494;6.670;2023-03-14T03:27:37;4.03;;;1.40;;
19016;SDS011;9641;51.494;6.670;2023-03-14T03:30:05;3.83;;;1.60;;
19016;SDS011;9641;51.494;6.670;2023-03-14T03:32:36;5.70;;;1.73;;
19016;SDS011;9641;51.494;6.670;2023-03-14T03:35:05;3.87;;;1.60;;
19016;SDS011;9641;51.494;6.670;2023-03-14T03:37:36;11.73;;;2.03;;
19016;SDS011;9641;51.494;6.670;2023-03-14T03:40:05;4.80;;;1.57;;
19016;SDS011;9641;51.494;6.670;2023-03-14T03:42:35;7.97;;;1.83;;
19016;SDS011;9641;51.494;6.670;2023-03-14T03:45:04;4.00;;;1.40;;
19016;SDS011;9641;51.494;6.670;2023-03-14T03:47:36;5.37;;;1.73;;
19016;SDS011;9641;51.494;6.670;2023-03-14T03:50:04;7.23;;;1.90;;
19016;SDS011;9641;51.494;6.670;2023-03-14T03:52:31;7.90;;;1.90;;
19016;SDS011;9641;51.494;6.670;2023-03-14T03:54:58;6.57;;;1.83;;
19016;SDS011;9641;51.494;6.670;2023-03-14T03:57:27;8.30;;;2.30;;
19016;SDS011;9641;51.494;6.670;2023-03-14T03:59:55;6.87;;;1.77;;
19016;SDS011;9641;51.494;6.670;2023-03-14T04:02:22;8.57;;;1.53;;
19016;SDS011;9641;51.494;6.670;2023-03-14T04:04:51;4.07;;;1.27;;
19016;SDS011;9641;51.494;6.670;2023-03-14T04:07:18;4.57;;;1.73;;
19016;SDS011;9641;51.494;6.670;2023-03-14T04:09:45;8.63;;;1.83;;
19016;SDS011;9641;51.494;6.670;2023-03-14T04:12:42;7.33;;;1.87;;
19016;SDS011;9641;51.494;6.670;2023-03-14T04:15:12;6.27;;;1.83;;
19016;SDS011;9641;51.494;6.670;2023-03-14T04:17:45;5.77;;;1.50;;
19016;SDS011;9641;51.494;6.670;2023-03-14T04:20:15;8.47;;;1.53;;
19016;SDS011;9641;51.494;6.670;2023-03-14T04:22:42;6.13;;;1.70;;
19016;SDS011;9641;51.494;6.670;2023-03-14T04:25:09;3.07;;;1.40;;
19016;SDS011;9641;51.494;6.670;2023-03-14T04:27:41;2.57;;;1.23;;
19016;SDS011;9641;51.494;6.670;2023-03-14T04:30:16;3.13;;;1.17;;
19016;SDS011;9641;51.494;6.670;2023-03-14T04:32:51;4.30;;;1.40;;
19016;SDS011;9641;51.494;6.670;2023-03-14T04:35:21;4.73;;;1.37;;
19016;SDS011;9641;51.494;6.670;2023-03-14T04:37:51;7.10;;;1.63;;
19016;SDS011;9641;51.494;6.670;2023-03-14T04:40:21;6.70;;;1.70;;
19016;SDS011;9641;51.494;6.670;2023-03-14T04:42:51;5.00;;;1.70;;
19016;SDS011;9641;51.494;6.670;2023-03-14T04:45:20;3.03;;;1.20;;
19016;SDS011;9641;51.494;6.670;2023-03-14T04:47:47;5.43;;;1.60;;
19016;SDS011;9641;51.494;6.670;2023-03-14T04:50:17;5.90;;;1.47;;
19016;SDS011;9641;51.494;6.670;2023-03-14T04:52:46;4.10;;;1.70;;
19016;SDS011;9641;51.494;6.670;2023-03-14T04:55:14;1.43;;;1.10;;
19016;SDS011;9641;51.494;6.670;2023-03-14T04:57:41;3.97;;;1.27;;
19016;SDS011;9641;51.494;6.670;2023-03-14T05:00:09;3.73;;;1.30;;
19016;SDS011;9641;51.494;6.670;2023-03-14T05:02:58;1.90;;;0.97;;
19016;SDS011;9641;51.494;6.670;2023-03-14T05:05:31;2.83;;;1.00;;
19016;SDS011;9641;51.494;6.670;2023-03-14T05:08:18;3.93;;;1.47;;
19016;SDS011;9641;51.494;6.670;2023-03-14T05:11:00;3.83;;;1.20;;
19016;SDS011;9641;51.494;6.670;2023-03-14T05:13:38;2.70;;;0.90;;
19016;SDS011;9641;51.494;6.670;2023-03-14T05:16:35;4.13;;;1.10;;
19016;SDS011;9641;51.494;6.670;2023-03-14T05:19:28;1.40;;;1.17;;
19016;SDS011;9641;51.494;6.670;2023-03-14T05:22:10;4.10;;;1.23;;
19016;SDS011;9641;51.494;6.670;2023-03-14T05:25:08;2.30;;;1.27;;
19016;SDS011;9641;51.494;6.670;2023-03-14T05:27:53;3.63;;;1.23;;
19016;SDS011;9641;51.494;6.670;2023-03-14T05:30:31;2.07;;;1.30;;
19016;SDS011;9641;51.494;6.670;2023-03-14T05:33:09;1.30;;;1.20;;
19016;SDS011;9641;51.494;6.670;2023-03-14T05:36:02;6.17;;;1.27;;
19016;SDS011;9641;51.494;6.670;2023-03-14T05:38:48;3.37;;;1.40;;
19016;SDS011;9641;51.494;6.670;2023-03-14T05:41:40;5.00;;;1.20;;
19016;SDS011;9641;51.494;6.670;2023-03-14T05:44:19;4.43;;;1.43;;
19016;SDS011;9641;51.494;6.670;2023-03-14T05:47:08;4.80;;;1.60;;
19016;SDS011;9641;51.494;6.670;2023-03-14T05:49:54;2.13;;;1.20;;
19016;SDS011;9641;51.494;6.670;2023-03-14T05:52:46;3.67;;;1.50;;
19016;SDS011;9641;51.494;6.670;2023-03-14T05:55:37;4.97;;;1.60;;
19016;SDS011;9641;51.494;6.670;2023-03-14T05:58:19;5.70;;;1.80;;
19016;SDS011;9641;51.494;6.670;2023-03-14T06:01:06;1.33;;;1.10;;
19016;SDS011;9641;51.494;6.670;2023-03-14T06:04:02;1.77;;;1.37;;
19016;SDS011;9641;51.494;6.670;2023-03-14T06:06:29;2.23;;;1.30;;
19016;SDS011;9641;51.494;6.670;2023-03-14T06:08:58;1.83;;;1.50;;
19016;SDS011;9641;51.494;6.670;2023-03-14T06:11:25;3.17;;;1.40;;
19016;SDS011;9641;51.494;6.670;2023-03-14T06:13:53;2.03;;;1.77;;
19016;SDS011;9641;51.494;6.670;2023-03-14T06:16:20;1.30;;;1.20;;
19016;SDS011;9641;51.494;6.670;2023-03-14T06:18:48;4.87;;;1.37;;
19016;SDS011;9641;51.494;6.670;2023-03-14T06:21:17;2.80;;;1.50;;
19016;SDS011;9641;51.494;6.670;2023-03-14T06:23:46;3.43;;;1.70;;
19016;SDS011;9641;51.494;6.670;2023-03-14T06:26:13;2.07;;;1.80;;
19016;SDS011;9641;51.494;6.670;2023-03-14T06:28:40;3.47;;;1.57;;
19016;SDS011;9641;51.494;6.670;2023-03-14T06:31:09;3.53;;;1.57;;
19016;SDS011;9641;51.494;6.670;2023-03-14T06:33:45;4.13;;;1.60;;
19016;SDS011;9641;51.494;6.670;2023-03-14T06:36:12;3.33;;;1.87;;
19016;SDS011;9641;51.494;6.670;2023-03-14T06:38:42;1.80;;;1.70;;
19016;SDS011;9641;51.494;6.670;2023-03-14T06:41:09;6.00;;;1.67;;
19016;SDS011;9641;51.494;6.670;2023-03-14T06:43:44;4.30;;;1.70;;
19016;SDS011;9641;51.494;6.670;2023-03-14T06:46:13;3.17;;;1.57;;
19016;SDS011;9641;51.494;6.670;2023-03-14T06:48:41;2.30;;;1.60;;
19016;SDS011;9641;51.494;6.670;2023-03-14T06:51:11;2.37;;;1.53;;
19016;SDS011;9641;51.494;6.670;2023-03-14T06:53:39;1.90;;;1.50;;
19016;SDS011;9641;51.494;6.670;2023-03-14T06:56:06;1.50;;;1.40;;
19016;SDS011;9641;51.494;6.670;2023-03-14T06:58:34;4.20;;;1.70;;
19016;SDS011;9641;51.494;6.670;2023-03-14T07:01:04;1.70;;;1.40;;
19016;SDS011;9641;51.494;6.670;2023-03-14T07:03:40;1.60;;;1.50;;
19016;SDS011;9641;51.494;6.670;2023-03-14T07:06:07;2.27;;;1.70;;
19016;SDS011;9641;51.494;6.670;2023-03-14T07:08:36;4.03;;;1.57;;
19016;SDS011;9641;51.494;6.670;2023-03-14T07:11:04;1.67;;;1.57;;
19016;SDS011;9641;51.494;6.670;2023-03-14T07:13:33;3.83;;;1.33;;
19016;SDS011;9641;51.494;6.670;2023-03-14T07:16:04;1.50;;;1.40;;
19016;SDS011;9641;51.494;6.670;2023-03-14T07:18:31;1.80;;;1.70;;
19016;SDS011;9641;51.494;6.670;2023-03-14T07:21:04;2.67;;;2.00;;
19016;SDS011;9641;51.494;6.670;2023-03-14T07:23:32;7.23;;;1.90;;
19016;SDS011;9641;51.494;6.670;2023-03-14T07:26:00;2.33;;;2.13;;
19016;SDS011;9641;51.494;6.670;2023-03-14T07:28:28;2.60;;;1.97;;
19016;SDS011;9641;51.494;6.670;2023-03-14T07:31:01;3.27;;;1.90;;
19016;SDS011;9641;51.494;6.670;2023-03-14T07:33:30;3.43;;;2.07;;
19016;SDS011;9641;51.494;6.670;2023-03-14T07:35:59;2.20;;;1.83;;
19016;SDS011;9641;51.494;6.670;2023-03-14T07:38:27;1.90;;;1.80;;
19016;SDS011;9641;51.494;6.670;2023-03-14T07:41:14;2.00;;;1.90;;
19016;SDS011;9641;51.494;6.670;2023-03-14T07:44:01;2.90;;;1.97;;
19016;SDS011;9641;51.494;6.670;2023-03-14T07:46:28;3.87;;;2.10;;
19016;SDS011;9641;51.494;6.670;2023-03-14T07:48:55;2.80;;;2.50;;
19016;SDS011;9641;51.494;6.670;2023-03-14T07:51:22;3.87;;;2.73;;
19016;SDS011;9641;51.494;6.670;2023-03-14T07:53:50;3.17;;;2.77;;
19016;SDS011;9641;51.494;6.670;2023-03-14T07:56:17;3.53;;;3.23;;
19016;SDS011;9641;51.494;6.670;2023-03-14T07:58:44;4.90;;;3.10;;
19016;SDS011;9641;51.494;6.670;2023-03-14T08:01:11;3.47;;;3.13;;
19016;SDS011;9641;51.494;6.670;2023-03-14T08:03:39;3.97;;;3.10;;
19016;SDS011;9641;51.494;6.670;2023-03-14T08:06:06;5.63;;;3.27;;
19016;SDS011;9641;51.494;6.670;2023-03-14T08:08:33;3.53;;;2.67;;
19016;SDS011;9641;51.494;6.670;2023-03-14T08:11:05;3.67;;;3.13;;
19016;SDS011;9641;51.494;6.670;2023-03-14T08:13:34;5.30;;;3.30;;
19016;SDS011;9641;51.494;6.670;2023-03-14T08:16:01;3.47;;;2.43;;
19016;SDS011;9641;51.494;6.670;2023-03-14T08:18:28;4.10;;;2.93;;
19016;SDS011;9641;51.494;6.670;2023-03-14T08:20:55;3.47;;;2.67;;
19016;SDS011;9641;51.494;6.670;2023-03-14T08:23:23;2.63;;;2.43;;
19016;SDS011;9641;51.494;6.670;2023-03-14T08:25:50;2.53;;;2.33;;
19016;SDS011;9641;51.494;6.670;2023-03-14T08:28:19;2.70;;;2.50;;
19016;SDS011;9641;51.494;6.670;2023-03-14T08:30:46;2.47;;;2.27;;
19016;SDS011;9641;51.494;6.670;2023-03-14T08:33:13;2.33;;;2.20;;
19016;SDS011;9641;51.494;6.670;2023-03-14T08:35:40;1.87;;;1.77;;
19016;SDS011;9641;51.494;6.670;2023-03-14T08:38:08;2.23;;;2.03;;
19016;SDS011;9641;51.494;6.670;2023-03-14T08:40:35;5.10;;;2.27;;
19016;SDS011;9641;51.494;6.670;2023-03-14T08:43:02;2.20;;;2.00;;
19016;SDS011;9641;51.494;6.670;2023-03-14T08:45:30;3.07;;;1.90;;
19016;SDS011;9641;51.494;6.670;2023-03-14T08:47:57;2.90;;;2.00;;
19016;SDS011;9641;51.494;6.670;2023-03-14T08:50:24;2.23;;;2.10;;
19016;SDS011;9641;51.494;6.670;2023-03-14T08:52:51;2.27;;;2.07;;
19016;SDS011;9641;51.494;6.670;2023-03-14T08:55:18;3.13;;;2.43;;
19016;SDS011;9641;51.494;6.670;2023-03-14T08:57:45;3.80;;;2.00;;
19016;SDS011;9641;51.494;6.670;2023-03-14T09:00:13;4.93;;;1.10;;
19016;SDS011;9641;51.494;6.670;2023-03-14T09:02:42;2.97;;;1.10;;
19016;SDS011;9641;51.494;6.670;2023-03-14T09:05:09;2.40;;;1.13;;
19016;SDS011;9641;51.494;6.670;2023-03-14T09:07:36;3.00;;;1.03;;
19016;SDS011;9641;51.494;6.670;2023-03-14T09:10:04;2.90;;;1.00;;
19016;SDS011;9641;51.494;6.670;2023-03-14T09:12:32;3.50;;;0.90;;
19016;SDS011;9641;51.494;6.670;2023-03-14T09:14:59;1.07;;;0.80;;
19016;SDS011;9641;51.494;6.670;2023-03-14T09:17:26;0.70;;;0.70;;
19016;SDS011;9641;51.494;6.670;2023-03-14T09:19:54;1.03;;;0.90;;
19016;SDS011;9641;51.494;6.670;2023-03-14T09:22:21;1.20;;;1.10;;
19016;SDS011;9641;51.494;6.670;2023-03-14T09:24:48;1.70;;;1.20;;
19016;SDS011;9641;51.494;6.670;2023-03-14T09:27:15;1.03;;;0.97;;
19016;SDS011;9641;51.494;6.670;2023-03-14T09:29:43;1.27;;;1.27;;
19016;SDS011;9641;51.494;6.670;2023-03-14T09:32:10;2.60;;;1.73;;
19016;SDS011;9641;51.494;6.670;2023-03-14T09:34:37;2.43;;;1.80;;
19016;SDS011;9641;51.494;6.670;2023-03-14T09:37:05;1.80;;;1.70;;
19016;SDS011;9641;51.494;6.670;2023-03-14T09:39:32;2.23;;;2.00;;
19016;SDS011;9641;51.494;6.670;2023-03-14T09:42:00;2.30;;;1.97;;
19016;SDS011;9641;51.494;6.670;2023-03-14T09:44:30;2.40;;;2.03;;
19016;SDS011;9641;51.494;6.670;2023-03-14T09:47:01;4.23;;;1.97;;
19016;SDS011;9641;51.494;6.670;2023-03-14T09:49:32;2.13;;;1.93;;
19016;SDS011;9641;51.494;6.670;2023-03-14T09:52:01;4.43;;;1.90;;
19016;SDS011;9641;51.494;6.670;2023-03-14T09:54:36;3.90;;;2.03;;
19016;SDS011;9641;51.494;6.670;2023-03-14T09:57:05;2.40;;;2.17;;
19016;SDS011;9641;51.494;6.670;2023-03-14T09:59:37;2.53;;;2.33;;
19016;SDS011;9641;51.494;6.670;2023-03-14T10:02:11;5.13;;;2.13;;
19016;SDS011;9641;51.494;6.670;2023-03-14T10:04:41;3.70;;;2.20;;
19016;SDS011;9641;51.494;6.670;2023-03-14T10:07:11;4.47;;;2.40;;
19016;SDS011;9641;51.494;6.670;2023-03-14T10:09:44;3.00;;;2.10;;
19016;SDS011;9641;51.494;6.670;2023-03-14T10:12:11;3.93;;;2.17;;
19016;SDS011;9641;51.494;6.670;2023-03-14T10:14:44;4.23;;;2.13;;
19016;SDS011;9641;51.494;6.670;2023-03-14T10:17:13;2.97;;;1.63;;
19016;SDS011;9641;51.494;6.670;2023-03-14T10:19:50;1.83;;;1.73;;
19016;SDS011;9641;51.494;6.670;2023-03-14T10:22:18;1.67;;;1.57;;
19016;SDS011;9641;51.494;6.670;2023-03-14T10:24:49;1.50;;;1.40;;
19016;SDS011;9641;51.494;6.670;2023-03-14T10:27:20;1.30;;;1.10;;
19016;SDS011;9641;51.494;6.670;2023-03-14T10:29:52;2.93;;;1.37;;
19016;SDS011;9641;51.494;6.670;2023-03-14T10:32:21;6.03;;;1.70;;
19016;SDS011;9641;51.494;6.670;2023-03-14T10:35:04;2.57;;;1.53;;
19016;SDS011;9641;51.494;6.670;2023-03-14T10:37:35;3.00;;;1.53;;
19016;SDS011;9641;51.494;6.670;2023-03-14T10:40:04;1.30;;;1.20;;
19016;SDS011;9641;51.494;6.670;2023-03-14T10:42:32;2.17;;;1.50;;
19016;SDS011;9641;51.494;6.670;2023-03-14T10:45:05;2.60;;;1.70;;
19016;SDS011;9641;51.494;6.670;2023-03-14T10:47:49;3.00;;;1.40;;
19016;SDS011;9641;51.494;6.670;2023-03-14T10:50:24;2.30;;;1.33;;
19016;SDS011;9641;51.494;6.670;2023-03-14T10:52:53;3.20;;;1.20;;
19016;SDS011;9641;51.494;6.670;2023-03-14T10:55:23;2.90;;;1.50;;
19016;SDS011;9641;51.494;6.670;2023-03-14T10:57:51;3.53;;;1.30;;
19016;SDS011;9641;51.494;6.670;2023-03-14T11:00:19;4.83;;;1.50;;
19016;SDS011;9641;51.494;6.670;2023-03-14T11:02:49;1.37;;;0.93;;
19016;SDS011;9641;51.494;6.670;2023-03-14T11:05:28;1.27;;;1.10;;
19016;SDS011;9641;51.494;6.670;2023-03-14T11:08:01;2.80;;;1.27;;
19016;SDS011;9641;51.494;6.670;2023-03-14T11:10:32;5.33;;;1.37;;
19016;SDS011;9641;51.494;6.670;2023-03-14T11:13:02;0.90;;;0.90;;
19016;SDS011;9641;51.494;6.670;2023-03-14T11:15:40;1.33;;;0.80;;
19016;SDS011;9641;51.494;6.670;2023-03-14T11:18:18;1.63;;;1.20;;
19016;SDS011;9641;51.494;6.670;2023-03-14T11:21:01;2.07;;;1.00;;
19016;SDS011;9641;51.494;6.670;2023-03-14T11:23:37;1.90;;;0.80;;
19016;SDS011;9641;51.494;6.670;2023-03-14T11:26:17;3.33;;;1.10;;
19016;SDS011;9641;51.494;6.670;2023-03-14T11:28:54;1.53;;;0.90;;
19016;SDS011;9641;51.494;6.670;2023-03-14T11:31:25;3.30;;;1.10;;
19016;SDS011;9641;51.494;6.670;2023-03-14T11:33:56;5.10;;;1.30;;
19016;SDS011;9641;51.494;6.670;2023-03-14T11:36:27;2.00;;;1.17;;
19016;SDS011;9641;51.494;6.670;2023-03-14T11:38:58;1.20;;;1.10;;
19016;SDS011;9641;51.494;6.670;2023-03-14T11:41:29;6.23;;;1.40;;
19016;SDS011;9641;51.494;6.670;2023-03-14T11:43:59;4.60;;;1.43;;
19016;SDS011;9641;51.494;6.670;2023-03-14T11:46:31;2.70;;;1.10;;
19016;SDS011;9641;51.494;6.670;2023-03-14T11:49:03;6.60;;;1.33;;
19016;SDS011;9641;51.494;6.670;2023-03-14T11:51:34;3.27;;;1.10;;
19016;SDS011;9641;51.494;6.670;2023-03-14T11:54:04;2.70;;;1.07;;
19016;SDS011;9641;51.494;6.670;2023-03-14T11:56:46;3.00;;;1.20;;
19016;SDS011;9641;51.494;6.670;2023-03-14T11:59:18;5.80;;;1.30;;
19016;SDS011;9641;51.494;6.670;2023-03-14T12:01:52;1.70;;;1.00;;
19016;SDS011;9641;51.494;6.670;2023-03-14T12:04:23;2.40;;;1.10;;
19016;SDS011;9641;51.494;6.670;2023-03-14T12:07:07;4.03;;;1.50;;
19016;SDS011;9641;51.494;6.670;2023-03-14T12:09:40;5.17;;;1.30;;
19016;SDS011;9641;51.494;6.670;2023-03-14T12:12:11;5.33;;;1.23;;
19016;SDS011;9641;51.494;6.670;2023-03-14T12:14:46;2.70;;;1.20;;
19016;SDS011;9641;51.494;6.670;2023-03-14T12:17:20;3.03;;;1.33;;
19016;SDS011;9641;51.494;6.670;2023-03-14T12:19:59;5.77;;;1.57;;
19016;SDS011;9641;51.494;6.670;2023-03-14T12:22:29;4.57;;;1.30;;
19016;SDS011;9641;51.494;6.670;2023-03-14T12:25:00;9.93;;;2.10;;
19016;SDS011;9641;51.494;6.670;2023-03-14T12:27:46;9.67;;;1.83;;
19016;SDS011;9641;51.494;6.670;2023-03-14T12:30:23;15.27;;;2.57;;
19016;SDS011;9641;51.494;6.670;2023-03-14T12:36:02;13.53;;;2.47;;
19016;SDS011;9641;51.494;6.670;2023-03-14T12:38:52;10.83;;;2.37;;
19016;SDS011;9641;51.494;6.670;2023-03-14T12:41:28;12.07;;;2.20;;
19016;SDS011;9641;51.494;6.670;2023-03-14T12:50:20;13.67;;;2.20;;
19016;SDS011;9641;51.494;6.670;2023-03-14T12:52:55;10.67;;;2.23;;
19016;SDS011;9641;51.494;6.670;2023-03-14T12:55:39;11.30;;;2.83;;
19016;SDS011;9641;51.494;6.670;2023-03-14T12:58:13;21.07;;;2.23;;
19016;SDS011;9641;51.494;6.670;2023-03-14T13:00:51;10.67;;;2.57;;
19016;SDS011;9641;51.494;6.670;2023-03-14T13:03:23;15.00;;;2.77;;
19016;SDS011;9641;51.494;6.670;2023-03-14T13:05:55;11.67;;;2.70;;
19016;SDS011;9641;51.494;6.670;2023-03-14T13:08:34;16.67;;;2.53;;
19016;SDS011;9641;51.494;6.670;2023-03-14T13:11:04;15.57;;;2.63;;
19016;SDS011;9641;51.494;6.670;2023-03-14T13:13:34;16.93;;;2.83;;
19016;SDS011;9641;51.494;6.670;2023-03-14T13:16:03;16.17;;;3.00;;
19016;SDS011;9641;51.494;6.670;2023-03-14T13:18:35;21.67;;;2.90;;
19016;SDS011;9641;51.494;6.670;2023-03-14T13:21:05;10.83;;;2.37;;
19016;SDS011;9641;51.494;6.670;2023-03-14T13:23:37;9.93;;;3.17;;
19016;SDS011;9641;51.494;6.670;2023-03-14T13:26:06;11.83;;;2.43;;
19016;SDS011;9641;51.494;6.670;2023-03-14T13:28:39;13.03;;;2.33;;
19016;SDS011;9641;51.494;6.670;2023-03-14T13:31:12;14.93;;;2.70;;
19016;SDS011;9641;51.494;6.670;2023-03-14T13:33:49;10.43;;;2.53;;
19016;SDS011;9641;51.494;6.670;2023-03-14T13:36:23;17.00;;;2.70;;
19016;SDS011;9641;51.494;6.670;2023-03-14T13:38:55;19.37;;;2.80;;
19016;SDS011;9641;51.494;6.670;2023-03-14T13:41:23;18.73;;;3.83;;
19016;SDS011;9641;51.494;6.670;2023-03-14T13:43:51;18.30;;;2.80;;
19016;SDS011;9641;51.494;6.670;2023-03-14T13:46:23;12.47;;;2.50;;
19016;SDS011;9641;51.494;6.670;2023-03-14T13:48:52;8.23;;;2.10;;
19016;SDS011;9641;51.494;6.670;2023-03-14T13:51:21;7.80;;;2.23;;
19016;SDS011;9641;51.494;6.670;2023-03-14T13:53:50;8.27;;;1.90;;
19016;SDS011;9641;51.494;6.670;2023-03-14T13:56:19;6.67;;;1.70;;
19016;SDS011;9641;51.494;6.670;2023-03-14T13:58:47;6.27;;;1.50;;
19016;SDS011;9641;51.494;6.670;2023-03-14T14:01:15;12.37;;;1.67;;
19016;SDS011;9641;51.494;6.670;2023-03-14T14:03:45;9.43;;;1.80;;
19016;SDS011;9641;51.494;6.670;2023-03-14T14:06:22;6.10;;;2.07;;
19016;SDS011;9641;51.494;6.670;2023-03-14T14:08:56;7.70;;;1.60;;
19016;SDS011;9641;51.494;6.670;2023-03-14T14:11:34;6.13;;;1.63;;
19016;SDS011;9641;51.494;6.670;2023-03-14T14:14:08;6.53;;;1.50;;
19016;SDS011;9641;51.494;6.670;2023-03-14T14:16:40;10.07;;;1.77;;
19016;SDS011;9641;51.494;6.670;2023-03-14T14:19:09;6.97;;;1.40;;
19016;SDS011;9641;51.494;6.670;2023-03-14T14:21:38;8.07;;;1.47;;
19016;SDS011;9641;51.494;6.670;2023-03-14T14:24:05;5.73;;;1.20;;
19016;SDS011;9641;51.494;6.670;2023-03-14T14:26:34;8.27;;;1.60;;
19016;SDS011;9641;51.494;6.670;2023-03-14T14:29:02;12.83;;;1.63;;
19016;SDS011;9641;51.494;6.670;2023-03-14T14:31:31;9.37;;;1.33;;
19016;SDS011;9641;51.494;6.670;2023-03-14T14:33:58;8.30;;;1.43;;
19016;SDS011;9641;51.494;6.670;2023-03-14T14:36:27;4.87;;;1.33;;
19016;SDS011;9641;51.494;6.670;2023-03-14T14:38:59;6.77;;;1.57;;
19016;SDS011;9641;51.494;6.670;2023-03-14T14:41:31;5.07;;;1.40;;
19016;SDS011;9641;51.494;6.670;2023-03-14T14:43:59;9.73;;;1.53;;
19016;SDS011;9641;51.494;6.670;2023-03-14T14:46:30;5.17;;;1.47;;
19016;SDS011;9641;51.494;6.670;2023-03-14T14:49:02;4.47;;;1.43;;
19016;SDS011;9641;51.494;6.670;2023-03-14T14:51:31;4.03;;;1.23;;
19016;SDS011;9641;51.494;6.670;2023-03-14T14:54:09;7.73;;;1.60;;
19016;SDS011;9641;51.494;6.670;2023-03-14T14:56:38;6.57;;;1.87;;
19016;SDS011;9641;51.494;6.670;2023-03-14T14:59:07;7.87;;;1.83;;
19016;SDS011;9641;51.494;6.670;2023-03-14T15:01:49;8.80;;;1.47;;
19016;SDS011;9641;51.494;6.670;2023-03-14T15:04:21;10.60;;;2.23;;
19016;SDS011;9641;51.494;6.670;2023-03-14T15:06:48;3.80;;;1.30;;
19016;SDS011;9641;51.494;6.670;2023-03-14T15:09:19;6.77;;;1.27;;
19016;SDS011;9641;51.494;6.670;2023-03-14T15:11:46;4.53;;;1.30;;
19016;SDS011;9641;51.494;6.670;2023-03-14T15:14:14;2.40;;;1.30;;
19016;SDS011;9641;51.494;6.670;2023-03-14T15:16:41;6.10;;;1.40;;
19016;SDS011;9641;51.494;6.670;2023-03-14T15:19:10;6.33;;;1.50;;
19016;SDS011;9641;51.494;6.670;2023-03-14T15:21:46;3.20;;;1.57;;
19016;SDS011;9641;51.494;6.670;2023-03-14T15:24:12;5.20;;;1.60;;
19016;SDS011;9641;51.494;6.670;2023-03-14T15:26:41;8.03;;;1.37;;
19016;SDS011;9641;51.494;6.670;2023-03-14T15:29:09;7.67;;;1.33;;
19016;SDS011;9641;51.494;6.670;2023-03-14T15:31:37;3.70;;;1.10;;
19016;SDS011;9641;51.494;6.670;2023-03-14T15:34:04;9.63;;;1.63;;